Time;durP1;ratioP1;P1;durP2;ratioP2;P2;SDS_P1;SDS_P2;PMS_P1;PMS_P2;Temp;Humidity;BMP_temperature;BMP_pressure;BME280_temperature;BME280_humidity;BME280_pressure;Samples;Min_cycle;Max_cycle;Signal;HPM_P1;HPM_P2
2021/01/16 00:01:26;;;;;;;6.20;5.20;;;;;;;-2.44;76.63;101730.34;4992124;28;20177;-79
2021/01/16 00:03:51;;;;;;;5.90;5.40;;;;;;;-2.56;77.91;101739.09;4993985;28;20185;-79
2021/01/16 00:06:16;;;;;;;6.10;5.50;;;;;;;-2.53;77.52;101739.53;4992997;28;20681;-79
2021/01/16 00:08:42;;;;;;;5.37;4.87;;;;;;;-2.42;77.35;101733.66;4993099;28;20189;-79
2021/01/16 00:11:08;;;;;;;6.70;6.10;;;;;;;-2.26;77.27;101727.19;4991954;28;20215;-78
2021/01/16 00:13:34;;;;;;;6.03;5.53;;;;;;;-1.97;77.47;101733.34;4993326;28;20913;-79
2021/01/16 00:16:03;;;;;;;5.83;5.23;;;;;;;-1.75;77.08;101726.03;4992979;28;20456;-79
2021/01/16 00:18:28;;;;;;;5.93;5.43;;;;;;;-1.55;76.48;101719.78;4992610;28;20322;-79
2021/01/16 00:20:58;;;;;;;5.20;4.80;;;;;;;-1.51;75.45;101720.19;4993026;28;20472;-79
2021/01/16 00:23:28;;;;;;;7.80;5.60;;;;;;;-1.52;75.79;101713.19;4991690;28;20185;-79
2021/01/16 00:25:55;;;;;;;6.47;5.87;;;;;;;-1.34;75.75;101712.63;4992950;28;20423;-79
2021/01/16 00:28:38;;;;;;;5.57;5.07;;;;;;;-1.27;75.15;101711.63;4991131;28;20451;-79
2021/01/16 00:31:04;;;;;;;6.80;5.93;;;;;;;-1.46;74.57;101714.22;4993124;28;20412;-78
2021/01/16 00:33:36;;;;;;;6.90;6.23;;;;;;;-2.10;75.12;101712.69;4992927;28;20475;-79
2021/01/16 00:36:03;;;;;;;6.07;5.57;;;;;;;-1.92;75.60;101706.78;4992787;28;20189;-78
2021/01/16 00:38:30;;;;;;;7.53;6.40;;;;;;;-1.91;75.95;101714.63;4992154;28;20839;-79
2021/01/16 00:40:56;;;;;;;6.20;5.53;;;;;;;-1.76;75.96;101713.69;4992747;28;20472;-79
2021/01/16 00:43:22;;;;;;;7.20;6.50;;;;;;;-1.94;75.74;101711.53;4993069;28;20425;-79
2021/01/16 00:45:50;;;;;;;7.20;6.53;;;;;;;-1.92;76.09;101709.47;4992754;28;20488;-79
2021/01/16 00:48:18;;;;;;;7.17;6.30;;;;;;;-1.76;75.73;101719.84;4992074;28;20650;-79
2021/01/16 00:50:44;;;;;;;7.13;6.47;;;;;;;-1.66;75.84;101711.47;4992162;28;20462;-78
2021/01/16 00:53:10;;;;;;;6.70;6.00;;;;;;;-1.63;75.81;101706.53;4992074;28;20436;-78
2021/01/16 00:55:36;;;;;;;6.10;5.60;;;;;;;-1.81;75.29;101703.56;4992012;28;20421;-79
2021/01/16 00:58:10;;;;;;;8.03;6.00;;;;;;;-1.63;75.51;101706.53;4990179;28;20425;-79
2021/01/16 01:00:37;;;;;;;7.07;6.07;;;;;;;-1.45;75.53;101702.47;4991920;28;20204;-78
2021/01/16 01:03:02;;;;;;;6.43;5.13;;;;;;;-1.46;74.42;101698.97;4991949;28;20457;-79
2021/01/16 01:05:28;;;;;;;6.10;5.50;;;;;;;-1.55;74.22;101698.34;4991884;28;20854;-79
2021/01/16 01:07:53;;;;;;;6.80;6.23;;;;;;;-1.62;74.74;101696.63;4991244;28;20178;-80
2021/01/16 01:10:34;;;;;;;6.70;5.50;;;;;;;-1.70;76.35;101705.69;4989622;28;20181;-78
2021/01/16 01:13:00;;;;;;;6.23;5.43;;;;;;;-1.84;76.03;101696.75;4991834;28;20181;-78
2021/01/16 01:15:25;;;;;;;6.90;6.20;;;;;;;-1.98;75.59;101699.56;4991967;28;20440;-78
2021/01/16 01:17:56;;;;;;;7.37;6.47;;;;;;;-1.99;76.54;101696.06;4991176;28;20173;-78
2021/01/16 01:20:22;;;;;;;6.40;5.77;;;;;;;-2.01;76.58;101698.13;4990242;28;20232;-78
2021/01/16 01:22:48;;;;;;;7.03;6.33;;;;;;;-2.07;76.54;101690.84;4991678;28;20500;-78
2021/01/16 01:25:14;;;;;;;6.30;5.70;;;;;;;-2.07;76.75;101695.38;4992306;28;20920;-78
2021/01/16 01:27:40;;;;;;;8.80;7.10;;;;;;;-2.05;77.11;101696.84;4992976;28;20440;-78
2021/01/16 01:30:06;;;;;;;7.10;6.37;;;;;;;-2.02;76.41;101687.59;4991489;28;20421;-78
2021/01/16 01:32:33;;;;;;;7.23;6.67;;;;;;;-2.08;76.30;101697.25;4991639;28;20178;-78
2021/01/16 01:34:58;;;;;;;6.77;6.17;;;;;;;-2.12;76.23;101695.97;4991576;28;20418;-78
2021/01/16 01:37:24;;;;;;;9.57;6.60;;;;;;;-2.20;77.12;101694.28;4990886;28;20420;-78
2021/01/16 01:39:50;;;;;;;6.90;6.27;;;;;;;-2.24;77.50;101693.03;4991239;28;20215;-78
2021/01/16 01:42:18;;;;;;;7.43;6.73;;;;;;;-2.28;78.12;101691.78;4991376;28;20173;-78
2021/01/16 01:44:44;;;;;;;8.70;6.07;;;;;;;-2.32;78.43;101695.84;4991433;28;20419;-78
2021/01/16 01:47:15;;;;;;;4.40;3.93;;;;;;;-2.37;77.75;101681.41;4990757;28;20452;-78
2021/01/16 01:49:41;;;;;;;5.60;5.17;;;;;;;-2.32;76.36;101689.66;4991478;28;20443;-78
2021/01/16 01:52:09;;;;;;;4.77;4.37;;;;;;;-2.27;73.20;101684.56;4991032;28;20440;-78
2021/01/16 01:54:36;;;;;;;4.60;4.20;;;;;;;-2.24;72.37;101693.03;4991313;28;20426;-78
2021/01/16 01:57:08;;;;;;;5.83;4.97;;;;;;;-2.24;71.91;101686.84;4990642;28;20464;-78
2021/01/16 01:59:37;;;;;;;2.87;2.67;;;;;;;-2.25;71.28;101686.03;4989805;28;20499;-78
2021/01/16 02:02:04;;;;;;;3.43;3.13;;;;;;;-2.28;70.99;101686.41;4991092;28;20458;-79
2021/01/16 02:04:31;;;;;;;3.97;3.57;;;;;;;-2.35;70.21;101684.72;4991051;28;20417;-78
2021/01/16 02:07:00;;;;;;;4.70;4.23;;;;;;;-2.33;70.10;101679.97;4990555;28;20882;-78
2021/01/16 02:09:26;;;;;;;3.20;2.87;;;;;;;-2.38;71.14;101680.56;4991032;28;20425;-77
2021/01/16 02:11:53;;;;;;;2.53;2.33;;;;;;;-2.40;70.85;101682.63;4991193;28;20588;-80
2021/01/16 02:14:29;;;;;;;3.90;3.60;;;;;;;-2.41;70.51;101676.44;4989768;28;20212;-78
2021/01/16 02:17:01;;;;;;;3.17;2.77;;;;;;;-2.38;70.09;101677.06;4990463;28;20416;-80
2021/01/16 02:19:46;;;;;;;3.53;2.70;;;;;;;-2.39;70.52;101678.94;4991253;28;20456;-80
2021/01/16 02:22:14;;;;;;;4.30;3.90;;;;;;;-2.43;70.58;101683.03;4994962;28;20447;-79
2021/01/16 02:24:50;;;;;;;2.60;2.37;;;;;;;-2.42;71.59;101685.50;4994948;28;20416;-79
2021/01/16 02:27:31;;;;;;;4.67;4.27;;;;;;;-2.41;72.49;101687.16;4994258;28;20668;-80
2021/01/16 02:29:57;;;;;;;4.97;4.50;;;;;;;-2.35;71.63;101684.72;4994786;28;20447;-79
2021/01/16 02:32:23;;;;;;;2.70;2.50;;;;;;;-2.37;70.42;101684.09;4993535;28;20428;-80
2021/01/16 02:34:52;;;;;;;3.27;2.97;;;;;;;-2.42;71.59;101677.47;4994717;28;20424;-79
2021/01/16 02:37:32;;;;;;;4.20;3.80;;;;;;;-2.45;71.44;101680.53;4994109;28;20181;-79
2021/01/16 02:40:15;;;;;;;2.27;2.13;;;;;;;-2.44;70.21;101671.50;4993175;28;20857;-80
2021/01/16 02:42:58;;;;;;;4.50;4.10;;;;;;;-2.42;70.66;101672.13;4993472;28;20420;-79
2021/01/16 02:45:34;;;;;;;5.13;4.73;;;;;;;-2.40;71.23;101683.44;4994103;28;21098;-79
2021/01/16 02:48:26;;;;;;;4.80;4.40;;;;;;;-2.40;72.78;101675.44;4992450;28;20510;-80
2021/01/16 02:50:54;;;;;;;3.80;3.50;;;;;;;-2.43;71.14;101677.66;4996757;28;20435;-79
2021/01/16 02:53:24;;;;;;;3.80;3.50;;;;;;;-2.38;71.44;101675.22;4995305;28;20932;-79
2021/01/16 02:55:51;;;;;;;6.97;3.77;;;;;;;-2.36;72.03;101670.50;5001330;28;20595;-79
2021/01/16 02:58:17;;;;;;;4.97;4.57;;;;;;;-2.35;72.27;101668.66;4995061;28;20409;-79
2021/01/16 03:00:43;;;;;;;5.13;4.73;;;;;;;-2.37;72.15;101670.69;4994320;28;20695;-78
2021/01/16 03:03:09;;;;;;;5.23;4.73;;;;;;;-2.34;72.45;101667.63;4994322;28;20467;-79
2021/01/16 03:05:35;;;;;;;4.67;3.93;;;;;;;-2.35;72.41;101664.13;4994758;28;20476;-80
2021/01/16 03:08:02;;;;;;;4.47;4.17;;;;;;;-2.36;72.92;101667.81;4993723;28;20177;-79
2021/01/16 03:10:29;;;;;;;4.40;4.00;;;;;;;-2.35;73.49;101657.94;4993435;28;20185;-79
2021/01/16 03:12:54;;;;;;;5.47;4.97;;;;;;;-2.36;73.51;101659.81;4993457;28;20567;-78
2021/01/16 03:15:21;;;;;;;5.60;5.10;;;;;;;-2.30;74.05;101664.38;4992652;28;20523;-79
2021/01/16 03:17:50;;;;;;;4.97;4.57;;;;;;;-2.29;74.00;101663.34;4993418;28;20173;-79
2021/01/16 03:20:21;;;;;;;5.70;5.17;;;;;;;-2.27;74.91;101655.94;4993710;28;20503;-79
2021/01/16 03:22:49;;;;;;;5.87;5.37;;;;;;;-2.20;74.62;101659.47;4993772;28;20420;-79
2021/01/16 03:25:18;;;;;;;5.60;5.10;;;;;;;-2.20;74.67;101654.13;4993785;28;20481;-79
2021/01/16 03:27:44;;;;;;;5.23;4.80;;;;;;;-2.15;74.78;101642.84;4993129;28;20429;-79
2021/01/16 03:30:10;;;;;;;5.67;5.17;;;;;;;-2.17;74.58;101640.38;4993687;28;20424;-79
2021/01/16 03:32:36;;;;;;;5.10;4.70;;;;;;;-2.13;74.61;101644.28;4992692;28;20188;-79
2021/01/16 03:35:03;;;;;;;4.77;4.37;;;;;;;-2.17;74.75;101643.06;4993683;28;20421;-78
2021/01/16 03:37:28;;;;;;;5.57;4.80;;;;;;;-2.20;75.25;101647.94;4974133;28;20196;-79
2021/01/16 03:39:53;;;;;;;5.27;4.77;;;;;;;-2.19;75.30;101646.91;4993342;28;20460;-79
2021/01/16 03:42:19;;;;;;;4.83;4.43;;;;;;;-2.17;75.93;101650.22;4992436;28;20189;-78
2021/01/16 03:44:44;;;;;;;6.20;5.60;;;;;;;-2.18;75.58;101638.69;4993696;28;20174;-79
2021/01/16 03:47:09;;;;;;;5.20;4.70;;;;;;;-2.17;74.56;101637.69;4992829;28;20181;-79
2021/01/16 03:49:35;;;;;;;5.10;4.70;;;;;;;-2.19;74.81;101633.53;4992042;28;20355;-79
2021/01/16 03:52:00;;;;;;;5.43;4.93;;;;;;;-2.16;74.69;101641.19;4993164;28;20188;-79
2021/01/16 03:54:26;;;;;;;5.33;4.83;;;;;;;-2.14;74.89;101641.81;4993639;28;20181;-79
2021/01/16 03:56:51;;;;;;;4.80;4.40;;;;;;;-2.12;75.16;101640.59;4992698;28;20181;-79
2021/01/16 03:59:17;;;;;;;5.03;4.60;;;;;;;-2.13;75.36;101646.16;4992972;28;20181;-79
2021/01/16 04:01:43;;;;;;;5.87;4.83;;;;;;;-2.13;74.87;101636.25;4993203;28;20177;-80
2021/01/16 04:04:08;;;;;;;5.53;4.97;;;;;;;-2.16;75.27;101634.00;4991575;28;20191;-79
2021/01/16 04:06:34;;;;;;;5.83;5.23;;;;;;;-2.12;75.34;101631.75;4992730;28;20507;-79
2021/01/16 04:08:59;;;;;;;5.20;4.63;;;;;;;-2.15;74.85;101629.47;4992833;28;20622;-80
2021/01/16 04:11:24;;;;;;;5.10;4.70;;;;;;;-2.12;74.95;101624.53;4993043;28;20177;-79
2021/01/16 04:13:50;;;;;;;5.60;5.10;;;;;;;-2.12;74.64;101629.06;4992657;28;20177;-79
2021/01/16 04:16:15;;;;;;;5.30;4.80;;;;;;;-2.11;74.81;101628.03;4992199;28;20219;-80
2021/01/16 04:18:41;;;;;;;5.00;4.60;;;;;;;-2.10;74.63;101633.19;4992493;28;20185;-80
2021/01/16 04:21:06;;;;;;;5.50;5.00;;;;;;;-2.10;74.33;101625.16;4992493;28;20295;-80
2021/01/16 04:23:31;;;;;;;5.17;4.77;;;;;;;-2.09;74.95;101623.31;4992880;28;20305;-79
2021/01/16 04:25:57;;;;;;;6.37;5.57;;;;;;;-2.08;75.40;101626.81;4992197;28;20184;-80
2021/01/16 04:28:23;;;;;;;5.50;5.10;;;;;;;-2.02;75.00;101615.31;4991915;28;20704;-79
2021/01/16 04:30:49;;;;;;;6.33;5.73;;;;;;;-2.16;75.50;101617.09;4992654;28;20417;-80
2021/01/16 04:33:14;;;;;;;6.30;5.70;;;;;;;-2.19;75.00;101620.97;4992495;28;20598;-80
2021/01/16 04:35:40;;;;;;;6.10;5.60;;;;;;;-2.20;74.65;101611.31;4992214;28;20553;-79
2021/01/16 04:38:05;;;;;;;6.47;5.87;;;;;;;-1.99;75.33;101617.59;4991461;28;20194;-80
2021/01/16 04:40:31;;;;;;;6.60;6.00;;;;;;;-2.12;74.71;101621.84;4991794;28;20208;-79
2021/01/16 04:42:59;;;;;;;6.33;5.83;;;;;;;-1.98;74.81;101625.41;4991870;28;20201;-79
2021/01/16 04:45:26;;;;;;;6.07;5.57;;;;;;;-1.94;74.59;101617.81;4991898;28;20607;-79
2021/01/16 04:47:56;;;;;;;6.47;5.87;;;;;;;-1.82;74.97;101619.72;4991236;28;20428;-80
2021/01/16 04:50:26;;;;;;;6.63;6.13;;;;;;;-1.62;75.26;101614.41;4991884;28;20905;-80
2021/01/16 04:53:01;;;;;;;5.60;5.10;;;;;;;-1.61;74.98;101620.59;4991868;28;20974;-80
2021/01/16 04:55:31;;;;;;;7.07;5.57;;;;;;;-1.67;74.86;101605.34;4992241;28;20408;-80
2021/01/16 04:58:09;;;;;;;6.50;5.90;;;;;;;-1.63;74.59;101609.25;4991714;28;20740;-80
2021/01/16 05:00:37;;;;;;;6.53;5.93;;;;;;;-1.87;73.21;101607.97;4991650;28;20992;-80
2021/01/16 05:03:10;;;;;;;7.17;6.57;;;;;;;-2.06;74.40;101595.31;4991863;28;20430;-80
2021/01/16 05:05:41;;;;;;;6.30;5.70;;;;;;;-2.18;73.88;101600.41;4992342;28;20416;-80
2021/01/16 05:08:08;;;;;;;6.40;5.90;;;;;;;-2.16;74.34;101596.53;4990928;28;20423;-79
2021/01/16 05:10:41;;;;;;;6.43;5.83;;;;;;;-2.23;75.02;101603.69;4991835;28;20420;-80
2021/01/16 05:13:15;;;;;;;6.27;5.77;;;;;;;-2.08;74.92;101608.91;4991732;28;20420;-80
2021/01/16 05:15:43;;;;;;;6.50;6.00;;;;;;;-1.78;75.28;101601.38;4990429;28;20416;-79
2021/01/16 05:18:14;;;;;;;6.73;6.20;;;;;;;-1.50;74.67;101587.84;4989376;28;20535;-80
2021/01/16 05:20:42;;;;;;;6.20;5.60;;;;;;;-1.42;73.47;101601.06;4990066;28;20559;-80
2021/01/16 05:23:12;;;;;;;14.27;6.07;;;;;;;-1.52;72.79;101590.75;4991750;28;20405;-80
2021/01/16 05:25:52;;;;;;;5.53;5.03;;;;;;;-1.54;72.93;101598.16;4990429;28;20420;-79
2021/01/16 05:28:19;;;;;;;6.00;5.37;;;;;;;-1.50;73.47;101593.22;4990809;28;20449;-80
2021/01/16 05:30:48;;;;;;;6.47;5.87;;;;;;;-1.45;73.30;101582.69;4991465;28;21046;-79
2021/01/16 05:33:14;;;;;;;6.63;6.03;;;;;;;-1.41;72.76;101586.63;4989881;28;20440;-79
2021/01/16 05:35:40;;;;;;;6.33;5.60;;;;;;;-1.46;72.00;101581.03;4991214;28;20417;-80
2021/01/16 05:38:07;;;;;;;6.47;5.87;;;;;;;-1.40;73.05;101585.63;4990497;28;20684;-80
2021/01/16 05:40:33;;;;;;;6.50;5.90;;;;;;;-1.42;73.19;101579.63;4990983;28;20263;-80
2021/01/16 05:43:00;;;;;;;6.63;5.83;;;;;;;-1.48;74.00;101580.44;4990825;28;20452;-79
2021/01/16 05:45:25;;;;;;;5.97;5.47;;;;;;;-1.43;74.51;101571.81;4989786;28;20449;-79
2021/01/16 05:47:52;;;;;;;6.30;5.70;;;;;;;-1.43;75.07;101572.63;4990876;28;20447;-79
2021/01/16 05:50:22;;;;;;;5.73;5.33;;;;;;;-1.45;75.04;101571.16;4991288;28;20185;-79
2021/01/16 05:52:48;;;;;;;6.13;5.53;;;;;;;-1.64;74.47;101572.78;4991147;28;20436;-80
2021/01/16 05:55:17;;;;;;;5.80;5.30;;;;;;;-1.62;75.07;101570.72;4990585;28;20428;-79
2021/01/16 05:57:48;;;;;;;6.23;5.73;;;;;;;-1.54;75.63;101566.00;4989228;28;20507;-79
2021/01/16 06:00:24;;;;;;;6.63;6.13;;;;;;;-1.55;74.96;101561.69;4991149;28;20483;-80
2021/01/16 06:02:53;;;;;;;6.67;6.17;;;;;;;-1.64;75.66;101559.38;4990022;28;20990;-81
2021/01/16 06:05:25;;;;;;;6.47;5.87;;;;;;;-1.70;76.20;101557.53;4990943;28;20423;-79
2021/01/16 06:07:54;;;;;;;6.90;6.30;;;;;;;-1.82;76.10;101544.72;4990312;28;20552;-79
2021/01/16 06:10:24;;;;;;;6.73;6.13;;;;;;;-1.88;77.05;101555.41;4990984;28;20506;-80
2021/01/16 06:12:50;;;;;;;6.60;6.10;;;;;;;-1.98;77.15;101544.28;4989739;28;20428;-80
2021/01/16 06:15:17;;;;;;;6.57;5.97;;;;;;;-2.05;77.93;101546.91;4990850;28;20891;-80
2021/01/16 06:17:46;;;;;;;7.13;6.43;;;;;;;-2.11;77.58;101542.38;4990398;28;20424;-80
2021/01/16 06:20:13;;;;;;;7.40;6.70;;;;;;;-2.11;77.64;101532.50;4991042;28;20472;-79
2021/01/16 06:22:42;;;;;;;6.87;6.27;;;;;;;-2.10;76.98;101539.50;4990612;28;20428;-79
2021/01/16 06:25:21;;;;;;;8.60;7.90;;;;;;;-2.09;77.17;101537.63;4990977;28;20858;-79
2021/01/16 06:27:48;;;;;;;8.43;7.63;;;;;;;-2.07;77.42;101538.25;4990127;28;20431;-80
2021/01/16 06:30:17;;;;;;;8.53;7.73;;;;;;;-2.03;77.55;101536.00;4990437;28;20818;-79
2021/01/16 06:32:50;;;;;;;8.53;7.73;;;;;;;-2.05;78.20;101538.88;4990908;28;20471;-80
2021/01/16 06:35:17;;;;;;;8.17;7.40;;;;;;;-2.07;78.07;101529.41;4990383;28;20478;-80
2021/01/16 06:37:50;;;;;;;8.80;8.00;;;;;;;-2.10;77.63;101536.00;4989730;28;20424;-79
2021/01/16 06:40:31;;;;;;;8.70;7.97;;;;;;;-2.11;77.62;101535.16;4990187;28;20906;-79
2021/01/16 06:42:57;;;;;;;8.17;7.37;;;;;;;-2.16;77.42;101534.13;4990812;28;20420;-80
2021/01/16 06:45:26;;;;;;;8.47;7.77;;;;;;;-2.16;78.10;101526.94;4990862;28;20452;-80
2021/01/16 06:47:59;;;;;;;9.37;8.47;;;;;;;-2.14;77.68;101540.09;4989716;28;20937;-79
2021/01/16 06:50:26;;;;;;;8.67;7.87;;;;;;;-2.14;77.86;101534.75;4990193;28;20460;-80
2021/01/16 06:52:51;;;;;;;8.57;7.77;;;;;;;-2.17;77.51;101530.63;4990271;28;20507;-80
2021/01/16 06:55:19;;;;;;;8.33;7.63;;;;;;;-2.19;77.49;101535.34;4990305;28;20866;-80
2021/01/16 06:57:45;;;;;;;8.87;7.97;;;;;;;-2.16;78.17;101523.41;4989632;28;20248;-80
2021/01/16 07:00:12;;;;;;;10.63;8.07;;;;;;;-2.16;78.32;101540.31;4989896;28;20467;-80
2021/01/16 07:02:39;;;;;;;8.27;7.47;;;;;;;-2.17;78.71;101537.81;4990205;28;20669;-80
2021/01/16 07:05:07;;;;;;;8.90;7.80;;;;;;;-2.16;78.74;101544.84;4990275;28;20444;-79
2021/01/16 07:07:37;;;;;;;8.97;8.17;;;;;;;-2.12;78.71;101535.38;4990934;28;20421;-81
2021/01/16 07:10:11;;;;;;;10.50;8.87;;;;;;;-2.08;78.87;101536.59;4993707;28;20919;-80
2021/01/16 07:12:41;;;;;;;11.07;10.07;;;;;;;-2.09;78.52;101543.00;4993362;28;20522;-81
2021/01/16 07:15:08;;;;;;;10.07;9.17;;;;;;;-2.11;79.14;101543.19;4976078;28;20426;-80
2021/01/16 07:17:34;;;;;;;9.83;8.93;;;;;;;-2.14;79.00;101540.09;4992789;28;20425;-78
2021/01/16 07:19:59;;;;;;;9.70;8.80;;;;;;;-2.10;79.48;101544.03;4993433;28;20475;-79
2021/01/16 07:22:50;;;;;;;9.27;8.47;;;;;;;-2.04;79.31;101529.00;4993380;28;20188;-77
2021/01/16 07:25:15;;;;;;;10.40;9.40;;;;;;;-2.01;79.89;101529.44;4993616;28;20357;-77
2021/01/16 07:27:42;;;;;;;8.80;8.00;;;;;;;-1.99;79.70;101526.56;4993248;28;20495;-77
2021/01/16 07:30:10;;;;;;;10.67;9.57;;;;;;;-2.00;79.72;101530.25;4993798;28;20177;-77
2021/01/16 07:32:40;;;;;;;10.60;8.87;;;;;;;-1.97;79.72;101532.53;4993707;28;20463;-78
2021/01/16 07:35:12;;;;;;;9.80;9.00;;;;;;;-1.95;79.73;101519.75;4993816;28;20507;-77
2021/01/16 07:37:40;;;;;;;10.07;8.63;;;;;;;-1.92;79.88;101517.50;4993147;28;20771;-77
2021/01/16 07:40:29;;;;;;;10.70;9.07;;;;;;;-1.92;79.83;101517.50;4993562;28;20456;-78
2021/01/16 07:42:57;;;;;;;10.10;9.17;;;;;;;-1.89;80.27;101514.41;4993154;28;20644;-77
2021/01/16 07:45:32;;;;;;;11.63;10.63;;;;;;;-2.09;80.04;101516.22;4993535;28;20916;-78
2021/01/16 07:48:05;;;;;;;11.03;10.03;;;;;;;-2.22;80.18;101511.66;4975667;28;20908;-77
2021/01/16 07:50:32;;;;;;;11.03;9.97;;;;;;;-2.24;80.39;101515.56;4993797;28;20405;-77
2021/01/16 07:53:00;;;;;;;11.47;10.47;;;;;;;-2.30;80.09;101511.84;4993289;28;20483;-78
2021/01/16 07:55:34;;;;;;;11.73;10.73;;;;;;;-2.27;79.89;101511.44;4993332;28;20784;-80
2021/01/16 07:58:04;;;;;;;11.07;10.07;;;;;;;-1.96;80.39;101518.94;4992530;28;20412;-79
2021/01/16 08:00:33;;;;;;;12.27;11.17;;;;;;;-1.80;79.68;101513.19;4992978;28;20474;-80
2021/01/16 08:03:23;;;;;;;10.53;9.63;;;;;;;-1.77;78.54;101516.50;4993030;28;20412;-74
2021/01/16 08:06:10;;;;;;;10.90;9.80;;;;;;;-2.02;77.23;101513.59;4992807;28;21011;-73
2021/01/16 08:08:53;;;;;;;10.73;9.73;;;;;;;-1.82;77.60;101507.22;4992515;28;20421;-73
2021/01/16 08:11:26;;;;;;;10.70;9.57;;;;;;;-2.11;76.65;101503.03;4992887;28;20459;-76
2021/01/16 08:13:57;;;;;;;11.27;10.27;;;;;;;-2.17;76.98;101508.34;4992484;28;20408;-76
2021/01/16 08:16:24;;;;;;;10.47;9.50;;;;;;;-1.80;76.92;101512.38;4992565;28;20444;-76
2021/01/16 08:18:53;;;;;;;10.37;9.37;;;;;;;-1.66;76.04;101516.72;4992217;28;20444;-76
2021/01/16 08:21:21;;;;;;;10.93;9.93;;;;;;;-1.61;76.08;101508.88;4992539;28;20527;-75
2021/01/16 08:23:51;;;;;;;11.93;10.83;;;;;;;-1.76;76.63;101508.25;4992669;28;20420;-77
2021/01/16 08:26:19;;;;;;;11.90;10.70;;;;;;;-1.67;76.38;101511.56;4992078;28;20468;-76
2021/01/16 08:28:45;;;;;;;13.30;12.00;;;;;;;-1.50;76.72;101510.13;4992697;28;20444;-76
2021/01/16 08:31:30;;;;;;;12.27;11.17;;;;;;;-1.40;76.28;101507.88;4992285;28;20920;-76
2021/01/16 08:33:56;;;;;;;11.23;10.23;;;;;;;-1.27;75.95;101505.22;4992322;28;20296;-76
2021/01/16 08:36:22;;;;;;;10.90;9.90;;;;;;;-1.26;75.62;101498.00;4991763;28;20963;-76
2021/01/16 08:38:49;;;;;;;12.40;11.07;;;;;;;-1.31;75.71;101497.75;4992472;28;20664;-76
2021/01/16 08:41:23;;;;;;;11.50;10.50;;;;;;;-1.52;75.99;101496.13;4992458;28;20470;-79
2021/01/16 08:43:59;;;;;;;14.37;13.00;;;;;;;-1.83;76.17;101491.38;4992049;28;20432;-76
2021/01/16 08:46:35;;;;;;;14.80;13.40;;;;;;;-2.02;77.06;101482.28;4980993;28;20479;-77
2021/01/16 08:49:14;;;;;;;12.90;11.60;;;;;;;-2.27;76.63;101489.19;4992121;28;20420;-77
2021/01/16 08:51:43;;;;;;;13.67;12.47;;;;;;;-2.33;77.06;101479.28;4992142;28;20970;-76
2021/01/16 08:54:23;;;;;;;25.07;19.50;;;;;;;-2.14;76.86;101486.56;4992292;28;20443;-76
2021/01/16 08:56:54;;;;;;;15.50;14.00;;;;;;;-1.85;76.18;101470.16;4991876;28;20467;-75
2021/01/16 08:59:33;;;;;;;11.57;10.47;;;;;;;-1.67;76.11;101479.44;4992709;28;20436;-75
2021/01/16 09:02:13;;;;;;;11.33;10.33;;;;;;;-1.66;75.54;101473.88;4989684;28;20782;-76
2021/01/16 09:04:45;;;;;;;11.37;10.37;;;;;;;-1.67;76.33;101471.41;4992734;28;20897;-76
2021/01/16 09:07:17;;;;;;;10.50;9.50;;;;;;;-1.65;77.10;101464.78;4991310;28;20934;-76
2021/01/16 09:10:02;;;;;;;13.03;11.83;;;;;;;-1.73;77.13;101464.19;4991746;28;20428;-76
2021/01/16 09:12:35;;;;;;;12.73;10.67;;;;;;;-1.77;77.56;101468.28;4992241;28;20452;-76
2021/01/16 09:15:23;;;;;;;12.37;11.13;;;;;;;-1.83;78.24;101465.41;4990942;28;20442;-75
2021/01/16 09:18:03;;;;;;;13.30;12.00;;;;;;;-1.81;78.61;101457.16;4991347;28;20459;-75
2021/01/16 09:20:30;;;;;;;17.10;14.23;;;;;;;-1.85;78.91;101459.44;4991756;28;20530;-75
2021/01/16 09:22:57;;;;;;;15.10;13.60;;;;;;;-1.82;78.37;101455.53;4991755;28;20436;-75
2021/01/16 09:25:24;;;;;;;15.97;13.70;;;;;;;-1.77;77.84;101454.91;4992170;28;20421;-76
2021/01/16 09:27:51;;;;;;;13.17;9.73;;;;;;;-1.85;76.51;101453.25;4989378;28;20507;-77
2021/01/16 09:30:29;;;;;;;12.80;11.50;;;;;;;-1.89;76.79;101452.81;4990727;28;20452;-77
2021/01/16 09:32:55;;;;;;;11.57;10.33;;;;;;;-1.88;76.46;101446.47;4990836;28;20428;-76
2021/01/16 09:35:34;;;;;;;12.57;11.27;;;;;;;-1.78;77.09;101461.28;4991481;28;20845;-76
2021/01/16 09:38:01;;;;;;;11.80;9.90;;;;;;;-1.81;76.90;101463.34;4991541;28;20377;-76
2021/01/16 09:40:35;;;;;;;12.93;11.73;;;;;;;-1.77;78.55;101452.22;4991323;28;20832;-77
2021/01/16 09:43:13;;;;;;;8.97;8.03;;;;;;;-1.85;78.46;101462.13;4991496;28;20499;-77
2021/01/16 09:45:59;;;;;;;7.73;6.53;;;;;;;-1.89;79.19;101460.84;4991423;28;20877;-74
2021/01/16 09:48:30;;;;;;;11.20;10.10;;;;;;;-1.96;79.24;101460.03;4991136;28;20519;-75
2021/01/16 09:50:57;;;;;;;11.07;9.53;;;;;;;-1.95;80.30;101461.69;4991082;28;20416;-74
2021/01/16 09:53:25;;;;;;;11.93;8.13;;;;;;;-1.98;80.80;101456.75;4991419;28;20467;-74
2021/01/16 09:55:53;;;;;;;14.23;12.83;;;;;;;-1.92;81.00;101452.41;4991229;28;20935;-75
2021/01/16 09:58:42;;;;;;;5.50;4.80;;;;;;;-1.91;81.32;101454.06;4990939;28;20536;-74
2021/01/16 10:01:23;;;;;;;5.87;5.33;;;;;;;-1.96;81.42;101451.19;4973882;28;20886;-77
2021/01/16 10:03:50;;;;;;;13.13;11.30;;;;;;;-1.98;81.51;101443.34;4991234;28;20511;-74
2021/01/16 10:06:19;;;;;;;12.87;11.47;;;;;;;-1.99;82.06;101444.38;4990540;28;20417;-74
2021/01/16 10:08:49;;;;;;;14.67;13.27;;;;;;;-1.94;81.97;101452.63;4991362;28;20421;-75
2021/01/16 10:11:44;;;;;;;13.87;12.47;;;;;;;-1.88;82.01;101445.59;4991032;28;20413;-75
2021/01/16 10:14:14;;;;;;;15.40;13.90;;;;;;;-1.84;81.88;101442.34;4971449;28;20433;-74
2021/01/16 10:16:40;;;;;;;16.83;15.23;;;;;;;-1.74;82.17;101443.75;4971324;28;21232;-74
2021/01/16 10:19:10;;;;;;;14.80;13.50;;;;;;;-1.63;81.50;101443.16;4990848;28;20512;-74
2021/01/16 10:21:45;;;;;;;16.67;14.70;;;;;;;-1.54;81.47;101437.41;4989761;28;20563;-75
2021/01/16 10:24:19;;;;;;;11.37;9.10;;;;;;;-1.54;81.17;101436.56;4990566;28;20919;-73
2021/01/16 10:26:45;;;;;;;12.13;10.90;;;;;;;-1.61;81.53;101430.38;4990472;28;20849;-75
2021/01/16 10:29:17;;;;;;;5.53;4.43;;;;;;;-1.68;82.17;101430.38;4987417;28;20435;-74
2021/01/16 10:31:42;;;;;;;14.77;13.37;;;;;;;-1.65;82.77;101426.47;4989633;28;20185;-74
2021/01/16 10:34:12;;;;;;;6.77;6.17;;;;;;;-1.62;81.92;101416.16;4990681;28;20421;-76
2021/01/16 10:36:38;;;;;;;19.17;12.53;;;;;;;-1.64;80.34;101404.81;4973138;28;20272;-76
2021/01/16 10:39:12;;;;;;;9.77;7.87;;;;;;;-1.58;80.54;101417.41;4973438;28;20432;-75
2021/01/16 10:41:38;;;;;;;8.30;7.57;;;;;;;-1.56;79.89;101409.16;4992188;28;20653;-75
2021/01/16 10:44:06;;;;;;;5.90;5.40;;;;;;;-1.52;80.23;101399.66;4977107;28;20423;-75
2021/01/16 10:46:43;;;;;;;7.13;6.43;;;;;;;-1.52;79.85;101392.44;4994289;28;20416;-75
2021/01/16 10:49:29;;;;;;;8.57;7.67;;;;;;;-1.51;78.12;101391.41;4994441;28;20482;-75
2021/01/16 10:51:57;;;;;;;4.60;4.20;;;;;;;-1.45;77.51;101386.25;4993823;28;20436;-77
2021/01/16 10:54:23;;;;;;;2.90;2.43;;;;;;;-1.44;76.08;101386.06;4994449;28;20763;-76
2021/01/16 10:57:01;;;;;;;9.30;8.40;;;;;;;-1.47;74.50;101372.25;4992662;28;20502;-75
2021/01/16 10:59:28;;;;;;;8.73;7.20;;;;;;;-1.41;75.16;101368.75;4973661;28;20269;-74
2021/01/16 11:01:53;;;;;;;6.60;3.40;;;;;;;-1.35;74.00;101366.03;4982428;28;20780;-75
2021/01/16 11:04:28;;;;;;;11.97;10.77;;;;;;;-1.33;74.31;101371.19;4994276;28;20436;-75
2021/01/16 11:07:00;;;;;;;6.53;5.87;;;;;;;-1.28;74.18;101366.03;4993893;28;20157;-76
2021/01/16 11:09:34;;;;;;;6.67;5.90;;;;;;;-1.27;75.06;101359.63;4994040;28;20507;-76
2021/01/16 11:12:03;;;;;;;11.27;10.03;;;;;;;-1.26;75.45;101346.03;4992742;28;20427;-73
2021/01/16 11:14:36;;;;;;;13.50;9.90;;;;;;;-1.15;76.58;101341.03;4992203;28;20458;-74
2021/01/16 11:17:03;;;;;;;13.43;12.10;;;;;;;-1.09;77.05;101342.88;4993617;28;20435;-75
2021/01/16 11:19:35;;;;;;;13.77;12.47;;;;;;;-1.07;77.32;101346.16;4993974;28;20573;-75
2021/01/16 11:22:21;;;;;;;11.87;10.57;;;;;;;-1.07;77.96;101332.75;4993757;28;20456;-75
2021/01/16 11:24:52;;;;;;;6.70;5.33;;;;;;;-1.18;77.63;101331.53;4975807;28;20803;-74
2021/01/16 11:27:22;;;;;;;13.07;11.67;;;;;;;-1.18;77.98;101334.22;4993355;28;20558;-74
2021/01/16 11:29:48;;;;;;;9.27;8.37;;;;;;;-1.15;78.48;101328.47;4976326;28;20952;-75
2021/01/16 11:32:33;;;;;;;13.43;10.40;;;;;;;-1.18;78.62;101323.50;4975261;28;20467;-75
2021/01/16 11:35:01;;;;;;;11.10;9.37;;;;;;;-1.15;78.37;101323.09;4993701;28;20444;-74